New Richland, MN (56072)

5:59 PM CDT on April 19, 2015 (GMT -0500)
KMNHARTL2 | | Change Station
CLOSE
Current Station
Personal Weather Station
Location: Hartland, MN
Elevation: 1260 ft
Nearby Weather Stations

Elev 1260 ft 43.80 °N, 93.49 °W | Updated 11 minutes ago

Rain
Rain
46.7 °F
Feels Like 41 °F
N
12.0
Wind Variable Wind from North
Gusts 20.0 mph

Today
High -- | Low -- °F
--% Chance of Precip.
Yesterday
High -- | Low -- °F
Precip. -- in
6:24 AM 8:02 PM
New Moon, 2% visible
Pressure 29.60 in
Visibility 10.0 miles
Clouds Mostly Cloudy 1400 ft
Mostly Cloudy 1800 ft
Overcast 2400 ft
Windchill 41 °F
Dew Point 45 °F
Humidity 93%
Rainfall 0.27 in
Snow Depth Not available.
UV 1 out of 12
Pollen 3.70 out of 12
Air Quality Not available.
Flu Activity Local Activity
METAR KAEL 192245Z AUTO 31016G22KT 10SM -RA BKN014 BKN018 OVC024 09/08 A2960 RMK AO2 P0003

More Conditions Fewer Conditions

Pressure 29.60 in
Visibility 10.0 miles
Clouds Mostly Cloudy 1400 ft
Mostly Cloudy 1800 ft
Overcast 2400 ft
Windchill 41 °F
Dew Point 45 °F
Humidity 93%
Rainfall 0.27 in
Snow Depth Not available.
UV 1 out of 12
Pollen 3.70 out of 12
Air Quality Not available.
Flu Activity Local Activity
METAR KAEL 192245Z AUTO 31016G22KT 10SM -RA BKN014 BKN018 OVC024 09/08 A2960 RMK AO2 P0003

More Conditions Fewer Conditions

Nowcast | as of 5:35 PM CDT on April 19, 2015

Scattered light rain or sprinkles will continue across portions of east central...and south central Minnesota...into the 6 PM hour. Most of the activity will remain east of a line...from Princeton to Glencoe...to Trimont. All of the precipitation is trekking north northeast at 15 mph. Rainfall amounts will mainly average between a few hundredths...to near one tenth of an inch prior to 730 PM. A few scattered locations may pick up as much as two tenths of an inch. Much of this activity will either dissipate ...Or move out of the region by late this evening.

×

10-Day Weather Forecast

Almanac

Astronomy

Apr. 19, 2015 Rise Set
Actual Time
Civil Twilight
Nautical Twilight
Astronomical Twilight
Moon
Length of Visible Light
Length of Day
Tomorrow will be .
, % of the Moon is Illuminated

Today's Extremes

State Highs State Lows

Community

WunderPhotos

Upload Photos

1,815,009 photos uploaded!

WunderBlogs® & News

Nearby

Air Quality

  Air Quality AQ Index Pollutant
Not available.

Snow Depth

Station Depth Elevation

Earthquake Activity

City Distance Mag. Time & Date
Minimum magnitude displayed is 2.5.

Coastal Water Temperatures

Place Temperature

Stations

Nearby Weather Stations

Station Location Temp. Windchill Dew Point Humidity Wind Precip. Elev Updated Type